Time;durP1;ratioP1;P1;durP2;ratioP2;P2;SDS_P1;SDS_P2;PMS_P1;PMS_P2;Temp;Humidity;BMP_temperature;BMP_pressure;BME280_temperature;BME280_humidity;BME280_pressure;Samples;Min_cycle;Max_cycle;Signal;HPM_P1;HPM_P2
2022/10/01 00:08:32;;;;;;;40.90;32.90;;;;;;;8.29;84.16;99281.60;446223;1273;147137;-62
2022/10/01 00:18:40;;;;;;;47.10;36.20;;;;;;;8.23;84.11;99285.07;447025;1273;194466;-61
2022/10/01 00:28:47;;;;;;;38.10;31.80;;;;;;;8.25;84.38;99302.92;447079;1273;142855;-62
2022/10/01 00:38:57;;;;;;;36.20;31.20;;;;;;;8.32;84.39;99310.34;446239;1273;142576;-63
2022/10/01 00:49:06;;;;;;;39.20;30.80;;;;;;;8.42;84.64;99305.45;441899;1273;142640;-62
2022/10/01 00:59:15;;;;;;;43.80;31.60;;;;;;;8.44;84.60;99300.95;446208;1273;142119;-62
2022/10/01 01:09:19;;;;;;;;;;;;;;;8.45;84.54;99294.40;447057;1272;143390;-62
2022/10/01 01:19:43;;;;;;;31.00;24.80;;;;;;;8.47;84.67;99276.30;447267;1272;129531;-62
2022/10/01 01:29:54;;;;;;;29.50;26.10;;;;;;;8.49;84.99;99263.64;446265;1271;142692;-62
2022/10/01 01:40:02;;;;;;;28.00;24.10;;;;;;;8.53;84.86;99256.28;447024;1272;141855;-62
2022/10/01 01:50:11;;;;;;;26.10;21.30;;;;;;;8.50;84.99;99247.40;439356;1273;152383;-61
2022/10/01 02:00:17;;;;;;;27.80;21.50;;;;;;;8.35;85.34;99246.70;446765;1274;143021;-63
2022/10/01 02:10:32;;;;;;;32.10;22.50;;;;;;;8.25;85.77;99261.39;446998;1273;142704;-61
2022/10/01 02:20:43;;;;;;;28.10;23.40;;;;;;;8.24;85.96;99261.31;446269;1270;143014;-62
2022/10/01 02:30:51;;;;;;;27.40;23.10;;;;;;;8.22;86.06;99264.58;446987;1272;142478;-62
2022/10/01 02:41:03;;;;;;;27.50;22.60;;;;;;;8.18;86.18;99254.67;446975;1272;144788;-63
2022/10/01 02:51:25;;;;;;;28.80;21.40;;;;;;;8.06;86.42;99262.19;437912;1273;143255;-63
2022/10/01 03:01:31;;;;;;;27.30;23.20;;;;;;;7.94;86.57;99267.75;439051;1273;142356;-62
2022/10/01 03:11:37;;;;;;;29.20;24.60;;;;;;;7.67;86.47;99267.73;446268;1271;144546;-62
2022/10/01 03:21:43;;;;;;;25.30;21.10;;;;;;;7.39;86.66;99253.24;446564;1275;143441;-62
2022/10/01 03:31:49;;;;;;;28.10;21.10;;;;;;;7.15;86.98;99255.11;447070;1271;143834;-62
2022/10/01 03:41:55;;;;;;;26.50;23.20;;;;;;;6.84;87.16;99253.14;446281;1273;143528;-63
2022/10/01 03:52:02;;;;;;;28.70;22.90;;;;;;;6.51;87.40;99243.72;437340;1273;143378;-62
2022/10/01 04:02:07;;;;;;;29.70;22.60;;;;;;;6.19;87.67;99230.40;446161;1273;142447;-62
2022/10/01 04:12:14;;;;;;;37.20;26.80;;;;;;;5.96;88.06;99221.34;436881;1272;143186;-62
2022/10/01 04:22:20;;;;;;;32.00;25.20;;;;;;;5.73;88.52;99213.23;447041;1271;144263;-62
2022/10/01 04:32:25;;;;;;;27.50;20.20;;;;;;;5.43;88.42;99221.48;446232;1272;142692;-63
2022/10/01 04:42:31;;;;;;;29.50;21.50;;;;;;;5.15;88.31;99223.84;447054;1273;142778;-62
2022/10/01 04:52:38;;;;;;;33.70;23.10;;;;;;;4.97;88.19;99226.42;438922;1274;143030;-61
2022/10/01 05:02:47;;;;;;;37.50;28.00;;;;;;;4.80;88.00;99233.64;444433;1273;142690;-62
2022/10/01 05:12:53;;;;;;;34.80;29.10;;;;;;;4.80;88.51;99238.98;432206;1273;143927;-61
2022/10/01 05:22:59;;;;;;;31.10;27.00;;;;;;;5.12;89.41;99236.49;430178;1273;142512;-62
2022/10/01 05:33:06;;;;;;;34.60;26.50;;;;;;;5.65;89.25;99232.38;430634;1273;142985;-62
2022/10/01 05:43:11;;;;;;;39.60;23.70;;;;;;;6.10;90.17;99219.39;429943;1273;142923;-63
2022/10/01 05:53:17;;;;;;;40.20;19.50;;;;;;;6.59;90.79;99208.00;429478;1275;143293;-63
2022/10/01 06:03:24;;;;;;;34.90;18.40;;;;;;;6.82;90.79;99206.27;430351;1273;144429;-62
2022/10/01 06:13:30;;;;;;;30.60;17.80;;;;;;;6.90;90.89;99209.83;430009;1273;143713;-62
2022/10/01 06:23:37;;;;;;;44.90;20.40;;;;;;;6.91;90.94;99214.67;429127;1273;143136;-61
2022/10/01 06:33:43;;;;;;;28.90;19.30;;;;;;;7.02;91.26;99213.34;430928;1273;142578;-62
2022/10/01 06:43:49;;;;;;;32.50;20.30;;;;;;;7.23;91.32;99209.73;430090;1273;144634;-62
2022/10/01 06:53:57;;;;;;;53.60;22.50;;;;;;;7.48;91.48;99207.67;429556;1273;144186;-62
2022/10/01 07:04:03;;;;;;;31.20;21.70;;;;;;;7.66;91.19;99212.52;430578;1272;145531;-61
2022/10/01 07:14:09;;;;;;;30.10;22.70;;;;;;;7.74;91.02;99221.20;429462;1273;197695;-61
2022/10/01 07:24:15;;;;;;;40.70;25.70;;;;;;;7.95;91.19;99221.33;430686;1273;197719;-61
2022/10/01 07:34:23;;;;;;;33.70;23.00;;;;;;;8.16;90.95;99220.81;429785;1273;143412;-63
2022/10/01 07:44:28;;;;;;;;;;;;;;;8.38;90.83;99217.35;429444;1275;142343;-61
2022/10/01 07:54:33;;;;;;;40.80;26.50;;;;;;;8.61;90.44;99213.92;440783;1274;128315;-61
2022/10/01 08:15:06;;;;;;;38.30;27.90;;;;;;;9.23;89.57;99183.30;437590;1275;142853;-61
2022/10/01 08:25:11;;;;;;;46.60;31.90;;;;;;;9.55;88.91;99173.38;430520;1274;143416;-63
2022/10/01 08:35:17;;;;;;;43.30;30.40;;;;;;;9.82;87.96;99179.14;429060;1274;142979;-62
2022/10/01 08:45:28;;;;;;;38.10;28.80;;;;;;;10.13;87.06;99170.20;428430;1275;145096;-62
2022/10/01 08:55:36;;;;;;;36.20;26.30;;;;;;;10.92;86.06;99157.73;432936;1275;145995;-62
2022/10/01 09:05:54;;;;;;;34.50;27.00;;;;;;;12.57;83.42;99146.95;445414;1275;143660;-62
2022/10/01 09:16:08;;;;;;;29.50;26.30;;;;;;;14.05;79.99;99129.92;446401;1273;143722;-62
2022/10/01 09:26:14;;;;;;;31.10;27.80;;;;;;;15.09;77.62;99119.19;445711;1275;183518;-63
2022/10/01 09:36:27;;;;;;;30.10;27.00;;;;;;;15.40;74.71;99107.45;446389;1275;143232;-62
2022/10/01 09:46:33;;;;;;;27.80;25.00;;;;;;;15.25;73.58;99091.45;446326;1275;143853;-60
2022/10/01 09:56:42;;;;;;;26.30;22.10;;;;;;;14.98;72.58;99065.59;434633;1275;142334;-62
2022/10/01 10:06:49;;;;;;;24.40;21.90;;;;;;;14.61;72.39;99064.09;446653;1275;142994;-62
2022/10/01 10:16:55;;;;;;;20.00;17.50;;;;;;;14.19;72.13;99043.96;442661;1275;142872;-61
2022/10/01 10:27:04;;;;;;;16.60;14.80;;;;;;;13.72;72.79;99033.06;429580;1276;143475;-62
2022/10/01 10:37:15;;;;;;;14.10;12.50;;;;;;;13.61;72.94;99014.08;430586;1275;142328;-63
2022/10/01 10:47:23;;;;;;;14.60;13.10;;;;;;;13.57;72.91;98996.35;429085;1273;141977;-61
2022/10/01 10:57:32;;;;;;;15.50;12.80;;;;;;;13.68;72.72;98983.04;431236;1273;142906;-62
2022/10/01 11:07:38;;;;;;;14.40;13.00;;;;;;;13.59;72.24;98968.37;431237;1272;143409;-63
2022/10/01 11:18:09;;;;;;;14.40;12.80;;;;;;;13.64;72.18;98947.86;429537;1273;142188;-62
2022/10/01 11:28:34;;;;;;;15.00;13.40;;;;;;;13.81;71.41;98929.34;430192;1273;143025;-62
2022/10/01 11:38:51;;;;;;;15.90;14.30;;;;;;;13.96;70.76;98917.85;430150;1273;142796;-62
2022/10/01 11:49:01;;;;;;;14.30;12.60;;;;;;;14.06;70.61;98902.36;430342;1273;142998;-62
2022/10/01 11:59:13;;;;;;;12.60;11.30;;;;;;;14.27;70.65;98889.97;430379;1273;166168;-62
2022/10/01 12:09:25;;;;;;;14.50;10.90;;;;;;;14.53;70.12;98875.58;430121;1273;147284;-63
2022/10/01 12:19:34;;;;;;;12.20;11.00;;;;;;;14.84;69.68;98863.15;430324;1272;147148;-62
2022/10/01 12:29:50;;;;;;;9.80;7.70;;;;;;;15.11;68.91;98861.11;430002;1273;142677;-62
2022/10/01 12:40:07;;;;;;;11.40;8.70;;;;;;;14.87;68.55;98856.83;430437;1273;148520;-62
2022/10/01 12:50:33;;;;;;;10.20;9.20;;;;;;;14.53;68.81;98847.07;429289;1273;144301;-62
2022/10/01 13:00:44;;;;;;;11.60;9.60;;;;;;;14.32;69.34;98837.54;430215;1273;142236;-62
2022/10/01 13:11:01;;;;;;;11.70;10.40;;;;;;;14.40;69.68;98825.95;431204;1273;142718;-62
2022/10/01 13:21:17;;;;;;;11.20;10.00;;;;;;;14.43;69.63;98807.31;431529;1273;145918;-63
2022/10/01 13:31:36;;;;;;;12.40;10.20;;;;;;;14.14;69.52;98803.13;430232;1276;145952;-61
2022/10/01 13:41:42;;;;;;;14.90;11.40;;;;;;;13.82;70.07;98796.98;430241;1273;143583;-62
2022/10/01 13:51:48;;;;;;;11.80;9.90;;;;;;;13.63;70.54;98788.08;431958;1273;143555;-62
2022/10/01 14:01:54;;;;;;;13.60;12.10;;;;;;;13.49;70.81;98781.32;430063;1273;143170;-61
2022/10/01 14:22:42;;;;;;;15.50;13.40;;;;;;;13.22;71.92;98750.59;430081;1274;143364;-63
2022/10/01 14:33:08;;;;;;;12.80;11.30;;;;;;;13.10;72.03;98739.14;429664;1273;142524;-62
2022/10/01 14:43:19;;;;;;;13.90;11.20;;;;;;;13.00;72.36;98721.16;429430;1273;144802;-64
2022/10/01 14:53:27;;;;;;;14.00;11.70;;;;;;;12.93;72.97;98706.87;429009;1274;142155;-62
2022/10/01 15:03:39;;;;;;;15.30;11.60;;;;;;;12.82;73.62;98685.74;428855;1273;142268;-62
2022/10/01 15:13:47;;;;;;;13.70;10.20;;;;;;;12.68;73.99;98674.27;446256;1275;144048;-62
2022/10/01 15:23:54;;;;;;;12.90;11.20;;;;;;;12.64;74.32;98657.96;435021;1274;142577;-61
2022/10/01 15:34:02;;;;;;;14.30;11.20;;;;;;;12.62;74.54;98644.98;430310;1274;143308;-63
2022/10/01 15:44:45;;;;;;;14.50;10.70;;;;;;;12.53;74.98;98640.29;429737;1274;144368;-62
2022/10/01 15:55:02;;;;;;;15.30;12.60;;;;;;;12.40;75.44;98636.52;430098;1276;142724;-61
2022/10/01 16:05:15;;;;;;;17.40;13.40;;;;;;;12.25;75.84;98632.33;430044;1273;143129;-62
2022/10/01 16:15:29;;;;;;;17.10;13.40;;;;;;;12.09;76.38;98626.69;430154;1274;143133;-62
2022/10/01 16:25:45;;;;;;;17.70;13.70;;;;;;;11.91;76.85;98625.05;429883;1274;143073;-61
2022/10/01 16:35:52;;;;;;;16.50;13.70;;;;;;;11.75;77.40;98617.77;431199;1276;142138;-61
2022/10/01 16:45:58;;;;;;;17.90;15.20;;;;;;;11.65;78.03;98608.91;430884;1274;144688;-62
2022/10/01 16:56:05;;;;;;;22.10;16.30;;;;;;;11.56;78.54;98602.69;430084;1276;143117;-64
2022/10/01 17:06:11;;;;;;;21.80;18.60;;;;;;;11.45;79.09;98600.98;431045;1274;199738;-61
2022/10/01 17:16:16;;;;;;;24.10;19.00;;;;;;;11.30;79.45;98592.95;446740;1274;144077;-62
2022/10/01 17:26:27;;;;;;;26.80;21.00;;;;;;;11.18;80.15;98584.29;445764;1274;163996;-62
2022/10/01 17:36:34;;;;;;;27.00;21.50;;;;;;;11.09;80.62;98580.13;446834;1274;143362;-62
2022/10/01 17:46:40;;;;;;;32.70;25.50;;;;;;;11.03;81.27;98577.13;446825;1274;146180;-63
2022/10/01 17:56:48;;;;;;;30.40;25.20;;;;;;;11.02;81.88;98569.81;446085;1274;144695;-62
2022/10/01 18:06:54;;;;;;;30.10;22.50;;;;;;;10.99;82.22;98570.94;433321;1274;143265;-61
2022/10/01 18:17:04;;;;;;;33.40;26.70;;;;;;;10.94;82.91;98562.77;439830;1275;143908;-63
2022/10/01 18:27:10;;;;;;;29.50;24.10;;;;;;;10.88;83.48;98558.84;446908;1274;142153;-62
2022/10/01 18:37:28;;;;;;;33.00;24.80;;;;;;;10.86;84.02;98553.05;446740;1274;142862;-62
2022/10/01 18:47:39;;;;;;;;;;;;;;;10.85;84.30;98552.95;446112;1273;143650;-62
2022/10/01 18:58:03;;;;;;;12.50;8.50;;;;;;;10.90;84.88;98593.88;446633;1274;128974;-61
2022/10/01 19:08:16;;;;;;;7.40;6.20;;;;;;;10.66;84.04;98623.42;430436;1273;142121;-64
2022/10/01 19:18:40;;;;;;;6.30;4.40;;;;;;;10.35;83.99;98624.80;430272;1273;142518;-62
2022/10/01 19:28:58;;;;;;;4.90;4.00;;;;;;;10.13;84.08;98625.95;430372;1276;142192;-62
2022/10/01 19:39:10;;;;;;;4.10;3.40;;;;;;;9.92;84.14;98628.77;429541;1275;143394;-63
2022/10/01 19:49:21;;;;;;;6.00;4.50;;;;;;;9.75;84.80;98627.62;430727;1273;143357;-62
2022/10/01 19:59:28;;;;;;;5.20;4.50;;;;;;;9.58;84.89;98627.14;431143;1273;143446;-62
2022/10/01 20:09:43;;;;;;;4.90;4.30;;;;;;;9.40;85.54;98630.27;430658;1274;144159;-62
2022/10/01 20:20:00;;;;;;;5.00;3.90;;;;;;;9.34;86.12;98630.15;430559;1274;142807;-63
2022/10/01 20:30:10;;;;;;;5.70;5.00;;;;;;;9.28;86.53;98629.36;430523;1272;142813;-64
2022/10/01 20:40:23;;;;;;;6.90;5.20;;;;;;;9.29;87.03;98634.88;431261;1273;141812;-63
2022/10/01 20:50:34;;;;;;;5.00;4.10;;;;;;;9.31;87.17;98638.27;430604;1273;322677;-62
2022/10/01 21:00:44;;;;;;;5.00;4.60;;;;;;;9.31;87.40;98641.91;430519;1273;141699;-62
2022/10/01 21:10:54;;;;;;;8.80;6.50;;;;;;;9.31;87.40;98639.10;430645;1273;144112;-63
2022/10/01 21:21:14;;;;;;;9.40;6.70;;;;;;;9.32;87.56;98644.60;429839;1274;141419;-61
2022/10/01 21:31:30;;;;;;;6.00;5.50;;;;;;;9.31;87.69;98649.77;430551;1273;144045;-62
2022/10/01 21:41:54;;;;;;;5.40;4.90;;;;;;;9.27;87.89;98653.39;429534;1273;142635;-63
2022/10/01 21:52:10;;;;;;;7.20;6.00;;;;;;;9.23;88.20;98653.82;431134;1273;142230;-65
2022/10/01 22:02:32;;;;;;;7.30;5.50;;;;;;;9.24;88.64;98664.38;430374;1273;148134;-63
2022/10/01 22:12:42;;;;;;;6.10;5.30;;;;;;;9.26;88.59;98660.59;438340;1272;142723;-62
2022/10/01 22:22:50;;;;;;;5.10;4.60;;;;;;;9.22;88.81;98662.27;446977;1273;142155;-61
2022/10/01 22:33:02;;;;;;;6.80;5.50;;;;;;;9.22;88.98;98664.72;437740;1273;142976;-61
2022/10/01 22:43:10;;;;;;;5.40;4.50;;;;;;;9.23;89.20;98661.67;444190;1270;142799;-62
2022/10/01 22:53:33;;;;;;;5.10;4.60;;;;;;;9.24;89.18;98664.60;446225;1273;142450;-61
2022/10/01 23:03:56;;;;;;;6.40;4.20;;;;;;;9.24;89.35;98669.10;447017;1273;141980;-61
2022/10/01 23:14:14;;;;;;;4.60;4.20;;;;;;;9.31;89.47;98680.48;446979;1272;142931;-61
2022/10/01 23:24:34;;;;;;;5.10;3.90;;;;;;;9.38;89.56;98687.86;444781;1275;142880;-61
2022/10/01 23:34:51;;;;;;;5.40;4.90;;;;;;;9.36;89.70;98695.33;430302;1273;146013;-61
2022/10/01 23:45:06;;;;;;;5.00;4.50;;;;;;;9.32;89.89;98704.00;429783;1273;144056;-61
